createdAt,value
2022-12-15T00:03:24.585Z,100067.06
2022-12-15T00:08:45.191Z,100083.22
2022-12-15T00:14:05.788Z,100080.31
2022-12-15T00:19:27.001Z,100087.03
2022-12-15T00:24:49.681Z,100091.97
2022-12-15T00:30:11.053Z,100085.47
2022-12-15T00:35:32.191Z,100089.50
2022-12-15T00:40:34.430Z,100085.47
2022-12-15T00:45:55.238Z,100080.78
2022-12-15T00:50:57.482Z,100088.13
2022-12-15T00:56:18.043Z,100076.09
2022-12-15T01:01:38.654Z,100086.81
2022-12-15T01:06:59.550Z,100079.91
2022-12-15T01:12:19.939Z,100083.91
2022-12-15T01:17:40.868Z,100088.41
2022-12-15T01:23:03.740Z,100087.72
2022-12-15T01:28:06.047Z,100097.13
2022-12-15T01:33:08.259Z,100097.13
2022-12-15T01:38:11.131Z,100087.94
2022-12-15T01:43:16.713Z,100079.44
2022-12-15T01:48:30.769Z,100084.34
2022-12-15T01:53:39.327Z,100095.53
2022-12-15T01:58:44.630Z,100093.97
2022-12-15T02:03:47.774Z,100093.53
2022-12-15T02:08:54.984Z,100104.47
2022-12-15T02:14:04.941Z,100115.66
2022-12-15T02:19:22.341Z,100121.47
2022-12-15T02:24:57.686Z,100125.72
2022-12-15T02:30:12.745Z,100129.97
2022-12-15T02:35:32.672Z,100126.81
2022-12-15T02:40:35.023Z,100144.19
2022-12-15T02:46:05.071Z,100157.19
2022-12-15T02:51:13.551Z,100163.88
2022-12-15T02:56:24.450Z,100167.00
2022-12-15T03:01:31.087Z,100170.50
2022-12-15T03:06:33.490Z,100179.00
2022-12-15T03:11:36.966Z,100173.88
2022-12-15T03:16:39.429Z,100174.97
2022-12-15T03:21:41.781Z,100184.13
2022-12-15T03:26:43.979Z,100171.13
2022-12-15T03:31:46.233Z,100173.34
2022-12-15T03:36:51.994Z,100167.56
2022-12-15T03:41:54.227Z,100159.50
2022-12-15T03:47:02.808Z,100166.00
2022-12-15T03:52:05.628Z,100151.25
2022-12-15T03:57:07.900Z,100155.66
2022-12-15T04:02:12.208Z,100168.63
2022-12-15T04:13:01.406Z,100198.78
2022-12-15T04:18:10.091Z,100203.69
2022-12-15T04:23:14.077Z,100211.72
2022-12-15T04:28:34.923Z,100210.63
2022-12-15T04:33:59.864Z,100210.81
2022-12-15T04:39:23.967Z,100212.59
2022-12-15T04:44:45.254Z,100222.66
2022-12-15T04:50:11.279Z,100216.69
2022-12-15T04:55:32.224Z,100237.56
2022-12-15T05:00:53.110Z,100241.91
2022-12-15T05:06:13.641Z,100249.31
2022-12-15T05:11:34.488Z,100250.25
2022-12-15T05:16:55.586Z,100260.44
2022-12-15T05:22:16.362Z,100258.63
2022-12-15T05:27:36.818Z,100259.13
2022-12-15T05:32:39.275Z,100268.94
2022-12-15T05:37:41.598Z,100260.47
2022-12-15T05:42:43.782Z,100273.03
2022-12-15T05:47:52.818Z,100277.13
2022-12-15T05:52:55.656Z,100291.69
2022-12-15T05:57:57.911Z,100289.06
2022-12-15T06:03:00.293Z,100304.72
2022-12-15T06:08:04.033Z,100304.31
2022-12-15T06:13:06.243Z,100316.59
2022-12-15T06:18:08.456Z,100335.25
2022-12-15T06:23:11.914Z,100338.00
2022-12-15T06:28:14.121Z,100331.97
2022-12-15T06:33:16.384Z,100323.91
2022-12-15T06:38:18.617Z,100318.75
2022-12-15T06:43:20.872Z,100314.47
2022-12-15T06:48:24.404Z,100329.88
2022-12-15T06:53:26.613Z,100343.28
2022-12-15T06:58:28.986Z,100342.31
2022-12-15T07:03:32.091Z,100344.28
2022-12-15T07:08:41.163Z,100338.59
2022-12-15T07:13:43.951Z,100350.03
2022-12-15T07:18:46.181Z,100367.22
2022-12-15T07:23:57.061Z,100381.47
2022-12-15T07:28:59.706Z,100389.56
2022-12-15T07:47:37.909Z,100416.31
2022-12-15T07:52:40.220Z,100418.06
2022-12-15T07:57:42.548Z,100424.75
2022-12-15T08:02:44.911Z,100428.09
2022-12-15T08:07:52.362Z,100436.09
2022-12-15T08:12:55.814Z,100443.22
2022-12-15T08:17:58.039Z,100440.84
2022-12-15T08:23:00.318Z,100443.47
2022-12-15T08:28:02.787Z,100460.00
2022-12-15T08:33:05.028Z,100449.72
2022-12-15T08:38:07.213Z,100458.34
2022-12-15T08:43:09.413Z,100449.59
2022-12-15T08:48:11.620Z,100454.44
2022-12-15T08:53:30.765Z,100464.44
2022-12-15T08:58:34.142Z,100473.06
2022-12-15T09:03:37.079Z,100483.63
2022-12-15T09:08:39.346Z,100481.31
2022-12-15T09:13:41.611Z,100486.97
2022-12-15T09:18:46.672Z,100494.75
2022-12-15T09:23:51.886Z,100486.94
2022-12-15T09:28:57.645Z,100488.47
2022-12-15T09:34:01.383Z,100500.47
2022-12-15T09:39:03.786Z,100501.00
2022-12-15T09:44:19.418Z,100497.22
2022-12-15T09:49:36.504Z,100501.66
2022-12-15T09:54:41.759Z,100510.53
2022-12-15T10:00:25.653Z,100489.50
2022-12-15T10:05:50.019Z,100502.56
2022-12-15T10:10:58.825Z,100500.31
2022-12-15T10:16:07.169Z,100496.31
2022-12-15T10:21:14.156Z,100488.03
2022-12-15T10:26:23.342Z,100490.88
2022-12-15T10:31:51.351Z,100483.00
2022-12-15T10:36:54.628Z,100477.72
2022-12-15T10:42:15.459Z,100496.94
2022-12-15T10:47:19.706Z,100490.53
2022-12-15T10:52:34.624Z,100497.63
2022-12-15T10:57:36.807Z,100491.63
2022-12-15T11:02:39.276Z,100490.84
2022-12-15T11:07:49.427Z,100507.09
2022-12-15T11:13:23.832Z,100512.34
2022-12-15T11:18:38.883Z,100518.50
2022-12-15T11:23:59.574Z,100519.22
2022-12-15T11:29:13.661Z,100531.59
2022-12-15T11:34:22.599Z,100520.19
2022-12-15T11:39:57.052Z,100525.81
2022-12-15T11:44:59.285Z,100535.97
2022-12-15T11:50:13.368Z,100534.59
2022-12-15T11:55:33.205Z,100538.56
2022-12-15T12:00:55.147Z,100535.59
2022-12-15T12:06:10.585Z,100532.94
2022-12-15T12:11:20.336Z,100539.06
2022-12-15T12:17:00.321Z,100521.59
2022-12-15T12:22:30.234Z,100535.53
2022-12-15T12:27:35.174Z,100531.38
2022-12-15T12:32:43.387Z,100535.97
2022-12-15T12:38:03.257Z,100533.00
2022-12-15T12:43:14.189Z,100528.94
2022-12-15T12:48:46.312Z,100528.91
2022-12-15T12:53:51.468Z,100529.75
2022-12-15T12:58:53.655Z,100522.53
2022-12-15T13:04:13.771Z,100528.97
2022-12-15T13:09:21.888Z,100533.38
2022-12-15T13:14:30.730Z,100540.31
2022-12-15T13:20:01.200Z,100538.44
2022-12-15T13:25:40.368Z,100534.47
2022-12-15T13:31:16.919Z,100533.38
2022-12-15T13:36:37.738Z,100541.50
2022-12-15T13:42:31.635Z,100551.41
2022-12-15T13:47:21.742Z,100557.84
2022-12-15T13:52:44.336Z,100570.34
2022-12-15T13:57:54.316Z,100569.00
2022-12-15T14:03:07.223Z,100567.75
2022-12-15T14:08:15.345Z,100563.16
2022-12-15T14:13:24.907Z,100571.75
2022-12-15T14:18:37.398Z,100570.13
2022-12-15T14:23:57.738Z,100565.13
2022-12-15T14:29:06.243Z,100566.34
2022-12-15T14:34:23.748Z,100563.81
2022-12-15T14:39:42.460Z,100552.34
2022-12-15T14:50:12.085Z,100570.59
2022-12-15T14:55:23.516Z,100567.69
2022-12-15T15:00:27.723Z,100566.25
2022-12-15T15:03:15.670Z,100568.72
2022-12-15T15:05:33.128Z,100586.16
2022-12-15T15:10:35.458Z,100581.56
2022-12-15T15:15:38.198Z,100575.28
2022-12-15T15:20:41.067Z,100581.19
2022-12-15T15:26:10.582Z,100586.44
2022-12-15T15:31:24.753Z,100591.16
2022-12-15T15:36:36.135Z,100603.06
2022-12-15T15:41:38.316Z,100597.34
2022-12-15T15:46:49.419Z,100598.09
2022-12-15T15:51:51.873Z,100599.75
2022-12-15T15:56:54.051Z,100599.44
2022-12-15T16:01:59.278Z,100596.19
2022-12-15T16:07:01.877Z,100594.03
2022-12-15T16:12:04.259Z,100586.38
2022-12-15T16:17:09.537Z,100587.81
2022-12-15T16:22:22.460Z,100579.13
2022-12-15T16:27:25.384Z,100578.66
2022-12-15T16:32:27.612Z,100582.72
2022-12-15T16:37:32.472Z,100601.22
2022-12-15T16:42:38.418Z,100608.59
2022-12-15T16:47:40.685Z,100608.06
2022-12-15T16:52:44.373Z,100621.28
2022-12-15T16:57:47.621Z,100617.78
2022-12-15T17:02:50.026Z,100623.72
2022-12-15T17:07:56.161Z,100624.06
2022-12-15T17:13:05.868Z,100626.84
2022-12-15T17:18:12.885Z,100628.16
2022-12-15T17:23:21.848Z,100627.38
2022-12-15T17:28:28.677Z,100624.59
2022-12-15T17:33:34.827Z,100621.44
2022-12-15T17:38:37.735Z,100639.94
2022-12-15T17:43:41.541Z,100653.84
2022-12-15T17:48:44.370Z,100661.69
2022-12-15T17:53:48.585Z,100667.47
2022-12-15T17:58:50.745Z,100664.75
2022-12-15T18:03:52.968Z,100675.38
2022-12-15T18:08:55.455Z,100681.06
2022-12-15T18:13:58.159Z,100683.03
2022-12-15T18:19:01.105Z,100687.38
2022-12-15T18:24:04.279Z,100693.41
2022-12-15T18:29:18.121Z,100699.78
2022-12-15T18:34:23.125Z,100698.88
2022-12-15T18:39:26.214Z,100696.66
2022-12-15T18:44:31.888Z,100686.13
2022-12-15T18:49:34.140Z,100689.78
2022-12-15T18:54:36.428Z,100698.72
2022-12-15T18:59:38.569Z,100704.44
2022-12-15T19:04:40.739Z,100698.56
2022-12-15T19:09:42.988Z,100713.81
2022-12-15T19:14:50.513Z,100715.97
2022-12-15T19:20:11.276Z,100709.44
2022-12-15T19:25:27.196Z,100715.19
2022-12-15T19:30:41.693Z,100714.34
2022-12-15T19:35:51.148Z,100703.72
2022-12-15T19:40:55.108Z,100708.75
2022-12-15T19:45:57.796Z,100694.19
2022-12-15T19:51:00.178Z,100713.41
2022-12-15T19:56:02.411Z,100709.69
2022-12-15T20:01:07.184Z,100711.06
2022-12-15T20:06:17.278Z,100714.97
2022-12-15T20:11:32.339Z,100721.56
2022-12-15T20:16:34.573Z,100725.91
2022-12-15T20:21:38.854Z,100712.88
2022-12-15T20:26:42.624Z,100720.56
2022-12-15T20:31:44.843Z,100721.72
2022-12-15T20:36:50.149Z,100726.28
2022-12-15T20:41:53.398Z,100721.13
2022-12-15T20:46:55.768Z,100728.41
2022-12-15T20:51:57.942Z,100737.66
2022-12-15T20:57:00.192Z,100744.75
2022-12-15T21:02:02.536Z,100747.00
2022-12-15T21:07:06.076Z,100752.00
2022-12-15T21:12:21.013Z,100750.25
2022-12-15T21:17:27.008Z,100739.47
2022-12-15T21:22:29.294Z,100741.97
2022-12-15T21:27:31.499Z,100750.31
2022-12-15T21:32:33.643Z,100766.53
2022-12-15T21:37:36.392Z,100763.66
2022-12-15T21:42:38.915Z,100766.16
2022-12-15T21:48:00.348Z,100765.44
2022-12-15T21:53:03.912Z,100768.41
2022-12-15T21:58:18.244Z,100776.09
2022-12-15T22:03:20.467Z,100770.25
2022-12-15T22:08:23.116Z,100778.81
2022-12-15T22:13:25.341Z,100789.19
2022-12-15T22:18:27.583Z,100784.72
2022-12-15T22:23:29.971Z,100794.16
2022-12-15T22:28:32.696Z,100788.09
2022-12-15T22:33:35.327Z,100779.13
2022-12-15T22:38:37.594Z,100778.91
2022-12-15T22:43:43.366Z,100782.97
